Norwich, North Dakota
Current Conditions -  °F | °C
As of 5:54 AM on Thursday 27 Nov 2014 (Local Time) from KMOT Reporting Station
Overcast Overcast  
Wind Chill: -9°   Ceiling: 2200
Heat Index: -9°   Visibility: 10mi
Dew Point: -15°   Wind: 3mph
Humidity: 75%   Direction: 110°ESE
Pressure: 30.31"   Gusts: NA
Location:  48.25°N, 100.99°W
Report Text: KMOT 271154Z AUTO 11003KT 10SM OVC022 M23/M26 A3031 RMK AO2 SLP320 70001 T12281261 11228 21278 58026
Loading
Personal Weather Stations






























Interactive Weather Map New forecast layout! Learn more

10-Day Weather Forecast

Advertisements
Track Severe Weather on mobile